Time;durP1;ratioP1;P1;durP2;ratioP2;P2;SDS_P1;SDS_P2;PMS_P1;PMS_P2;Temp;Humidity;BMP_temperature;BMP_pressure;BME280_temperature;BME280_humidity;BME280_pressure;Samples;Min_cycle;Max_cycle;Signal;HPM_P1;HPM_P2
2020/12/05 00:00:38;;;;;;;33.80;15.55;;;;;;;0.57;83.12;96321.66;5048234;28;20124;-70
2020/12/05 00:03:03;;;;;;;31.88;15.32;;;;;;;0.52;82.65;96333.94;5046226;28;20033;-70
2020/12/05 00:05:28;;;;;;;34.78;15.82;;;;;;;0.42;82.82;96339.66;5043106;28;20418;-70
2020/12/05 00:07:53;;;;;;;32.72;15.43;;;;;;;0.34;83.88;96326.50;5035844;28;20038;-69
2020/12/05 00:10:19;;;;;;;30.92;14.85;;;;;;;0.43;83.38;96335.97;5050061;28;20073;-71
2020/12/05 00:12:44;;;;;;;37.25;15.80;;;;;;;0.42;83.30;96340.47;5046866;28;20081;-70
2020/12/05 00:15:09;;;;;;;30.83;15.45;;;;;;;0.50;82.85;96357.25;5043888;28;20091;-70
2020/12/05 00:17:35;;;;;;;38.58;16.60;;;;;;;0.47;83.23;96341.69;5044170;28;20025;-70
2020/12/05 00:20:00;;;;;;;33.17;15.65;;;;;;;0.46;83.00;96308.97;5037649;28;20039;-70
2020/12/05 00:22:25;;;;;;;37.08;14.70;;;;;;;0.47;83.46;96331.88;5031402;28;20447;-70
2020/12/05 00:24:50;;;;;;;34.42;15.32;;;;;;;0.50;82.91;96335.97;5026608;28;20029;-70
2020/12/05 00:27:20;;;;;;;33.28;15.38;;;;;;;0.52;83.14;96333.94;5017529;28;20037;-69
2020/12/05 00:29:47;;;;;;;33.78;15.05;;;;;;;0.58;82.61;96349.94;5044301;28;20029;-70
2020/12/05 00:32:12;;;;;;;34.15;14.88;;;;;;;0.57;83.31;96355.44;5015540;28;20072;-70
2020/12/05 00:34:37;;;;;;;32.55;15.90;;;;;;;0.56;83.31;96367.94;5029969;28;20487;-70
2020/12/05 00:37:02;;;;;;;42.60;16.10;;;;;;;0.59;83.59;96383.50;5034532;28;20034;-71
2020/12/05 00:39:28;;;;;;;37.53;15.75;;;;;;;0.55;84.01;96350.34;5034273;28;20025;-69
2020/12/05 00:41:54;;;;;;;33.60;15.60;;;;;;;0.54;84.41;96330.06;5031527;28;20074;-70
2020/12/05 00:44:19;;;;;;;34.35;15.50;;;;;;;0.51;84.27;96340.28;5016693;28;20500;-70
2020/12/05 00:46:44;;;;;;;36.95;16.67;;;;;;;0.47;84.04;96315.91;5045288;28;20029;-70
2020/12/05 00:49:10;;;;;;;35.35;15.48;;;;;;;0.43;84.48;96310.19;5049718;28;20029;-70
2020/12/05 00:51:35;;;;;;;36.63;14.93;;;;;;;0.52;84.49;96316.13;5022412;28;20561;-70
2020/12/05 00:54:01;;;;;;;33.92;15.30;;;;;;;0.46;84.14;96303.66;5023093;28;20220;-69
2020/12/05 00:56:26;;;;;;;34.83;16.13;;;;;;;0.38;84.39;96303.84;5015467;28;20037;-70
2020/12/05 00:58:51;;;;;;;33.63;14.85;;;;;;;0.26;85.36;96289.47;5016357;28;20026;-70
2020/12/05 01:01:17;;;;;;;35.13;15.38;;;;;;;0.18;85.51;96295.78;5032208;28;20031;-69
2020/12/05 01:03:43;;;;;;;37.22;15.77;;;;;;;0.20;86.03;96297.22;5024537;28;20039;-70
2020/12/05 01:06:13;;;;;;;33.70;15.13;;;;;;;0.10;85.98;96288.81;5033171;28;20026;-72
2020/12/05 01:08:40;;;;;;;34.35;15.20;;;;;;;0.08;86.18;96290.88;5024999;28;20029;-72
2020/12/05 01:11:13;;;;;;;32.17;15.23;;;;;;;0.03;85.99;96287.97;5053823;28;20040;-72
2020/12/05 01:13:38;;;;;;;31.92;15.30;;;;;;;-0.02;85.72;96295.72;5050072;28;20041;-72
2020/12/05 01:16:03;;;;;;;33.38;14.77;;;;;;;-0.09;86.32;96306.31;5048629;28;20032;-72
2020/12/05 01:18:28;;;;;;;34.20;15.57;;;;;;;-0.01;86.19;96316.78;5053855;28;20036;-71
2020/12/05 01:20:54;;;;;;;37.63;16.40;;;;;;;-0.04;85.75;96345.59;5046820;28;20029;-72
2020/12/05 01:23:19;;;;;;;37.95;16.40;;;;;;;0.07;85.83;96379.59;5053628;28;20029;-72
2020/12/05 01:25:44;;;;;;;37.63;16.73;;;;;;;0.15;85.64;96403.34;5053472;28;20055;-72
2020/12/05 01:28:09;;;;;;;40.55;17.08;;;;;;;0.18;86.23;96405.63;5054690;28;20025;-72
2020/12/05 01:30:35;;;;;;;33.83;15.13;;;;;;;0.31;85.58;96406.69;5045647;28;20025;-72
2020/12/05 01:33:00;;;;;;;38.10;16.00;;;;;;;0.22;85.45;96412.19;5035841;28;20089;-72
2020/12/05 01:35:25;;;;;;;35.00;15.95;;;;;;;0.34;85.06;96415.13;5036142;28;20029;-72
2020/12/05 01:37:50;;;;;;;36.35;15.45;;;;;;;0.34;85.41;96416.94;5052637;28;20052;-72
2020/12/05 01:40:16;;;;;;;32.50;15.18;;;;;;;0.35;84.53;96429.25;5047689;28;20021;-72
2020/12/05 01:42:43;;;;;;;38.03;17.20;;;;;;;0.41;84.54;96439.88;5043513;28;20061;-69
2020/12/05 01:45:08;;;;;;;36.65;15.85;;;;;;;0.49;84.17;96446.88;5042561;28;20129;-69
2020/12/05 01:47:35;;;;;;;37.38;16.23;;;;;;;0.40;84.20;96453.41;5046668;28;20021;-70
2020/12/05 01:50:00;;;;;;;35.47;15.25;;;;;;;0.47;84.67;96474.69;5040618;28;20024;-70
2020/12/05 01:52:25;;;;;;;35.13;16.10;;;;;;;0.39;84.32;96457.06;5053118;28;20155;-70
2020/12/05 01:54:51;;;;;;;36.95;16.67;;;;;;;0.44;84.76;96491.88;5034250;28;20032;-70
2020/12/05 01:57:20;;;;;;;38.40;17.00;;;;;;;0.62;84.21;96486.84;5033051;28;20024;-70
2020/12/05 01:59:46;;;;;;;37.47;16.58;;;;;;;0.74;84.15;96449.06;5032036;28;20033;-69
2020/12/05 02:02:11;;;;;;;37.38;16.15;;;;;;;0.69;84.19;96430.19;5030382;28;20021;-70
2020/12/05 02:04:46;;;;;;;36.65;15.98;;;;;;;0.55;84.56;96431.97;5017319;28;20038;-70
2020/12/05 02:07:23;;;;;;;36.08;15.68;;;;;;;0.56;84.29;96458.38;5013863;28;20065;-70
2020/12/05 02:09:50;;;;;;;36.63;15.57;;;;;;;0.58;84.36;96474.97;5034972;28;20024;-70
2020/12/05 02:12:26;;;;;;;34.35;15.23;;;;;;;0.58;84.52;96459.00;5029202;28;20021;-71
2020/12/05 02:14:59;;;;;;;35.92;17.08;;;;;;;0.64;84.54;96466.19;5023751;28;20106;-72
2020/12/05 02:17:25;;;;;;;33.75;15.38;;;;;;;0.63;85.23;96469.88;5025368;28;20671;-71
2020/12/05 02:19:52;;;;;;;35.25;14.80;;;;;;;0.61;84.75;96460.47;5013063;28;20112;-72
2020/12/05 02:22:27;;;;;;;34.67;15.82;;;;;;;0.70;84.53;96480.53;5019023;28;20062;-71
2020/12/05 02:24:53;;;;;;;34.97;16.17;;;;;;;0.64;85.26;96474.19;5016848;28;20438;-71
2020/12/05 02:27:20;;;;;;;33.83;16.10;;;;;;;0.62;85.92;96483.38;5031897;28;20040;-71
2020/12/05 02:29:45;;;;;;;35.55;16.65;;;;;;;0.49;86.55;96478.81;5018228;28;20029;-71
2020/12/05 02:32:11;;;;;;;35.72;16.88;;;;;;;0.35;86.78;96503.69;5024426;28;20037;-71
2020/12/05 02:34:36;;;;;;;40.35;16.23;;;;;;;0.20;87.09;96483.34;5047798;28;20036;-72
2020/12/05 02:37:06;;;;;;;43.70;17.70;;;;;;;0.32;87.36;96520.06;5031047;28;20479;-71
2020/12/05 02:39:32;;;;;;;40.00;17.77;;;;;;;0.19;87.82;96536.75;5020610;28;20105;-71
2020/12/05 02:41:57;;;;;;;42.83;17.50;;;;;;;0.16;87.95;96551.25;5017889;28;20147;-71
2020/12/05 02:44:22;;;;;;;41.53;17.17;;;;;;;0.11;87.93;96558.97;5029054;28;20487;-71
2020/12/05 02:46:49;;;;;;;43.33;17.10;;;;;;;0.11;88.01;96552.84;5032269;28;20064;-71
2020/12/05 02:49:15;;;;;;;42.95;17.20;;;;;;;0.01;88.70;96533.75;5030834;28;20084;-71
2020/12/05 02:51:41;;;;;;;46.85;18.55;;;;;;;-0.01;88.87;96571.13;5031997;28;20514;-71
2020/12/05 02:54:07;;;;;;;42.25;17.77;;;;;;;-0.10;89.20;96551.03;5031092;28;20090;-71
2020/12/05 02:56:32;;;;;;;40.30;17.05;;;;;;;-0.07;89.43;96563.94;5015139;28;20026;-71
2020/12/05 02:58:57;;;;;;;39.80;18.40;;;;;;;-0.18;89.54;96583.03;5023543;28;20428;-71
2020/12/05 03:01:23;;;;;;;44.85;18.67;;;;;;;-0.19;90.39;96607.97;5032788;28;20040;-71
2020/12/05 03:03:48;;;;;;;40.70;18.20;;;;;;;-0.26;90.19;96632.66;5057765;28;20073;-72
2020/12/05 03:06:13;;;;;;;42.15;17.45;;;;;;;-0.15;89.96;96654.44;5047618;28;20052;-71
2020/12/05 03:08:39;;;;;;;43.33;18.88;;;;;;;-0.23;90.89;96676.63;5049284;28;20044;-71
2020/12/05 03:11:04;;;;;;;47.08;18.58;;;;;;;-0.24;90.71;96673.16;5038919;28;20061;-72
2020/12/05 03:13:29;;;;;;;43.38;18.88;;;;;;;-0.31;91.46;96664.28;5043041;28;20064;-71
2020/12/05 03:15:54;;;;;;;48.17;19.85;;;;;;;-0.31;91.61;96637.72;5043653;28;20056;-71
2020/12/05 03:18:20;;;;;;;51.97;19.58;;;;;;;-0.31;91.47;96666.94;5058404;28;20468;-71
2020/12/05 03:20:45;;;;;;;49.03;20.30;;;;;;;-0.37;91.46;96685.44;5050018;28;20081;-70
2020/12/05 03:23:10;;;;;;;57.53;21.25;;;;;;;-0.32;91.64;96693.69;5049572;28;20025;-71
2020/12/05 03:25:35;;;;;;;53.75;21.42;;;;;;;-0.37;92.20;96686.25;5045959;28;20025;-71
2020/12/05 03:28:01;;;;;;;54.40;20.83;;;;;;;-0.28;92.49;96677.19;5047020;28;20044;-71
2020/12/05 03:30:26;;;;;;;53.88;20.15;;;;;;;-0.28;92.42;96689.66;5039591;28;20026;-71
2020/12/05 03:32:51;;;;;;;57.95;21.48;;;;;;;-0.37;92.28;96682.78;5039504;28;20080;-71
2020/12/05 03:35:17;;;;;;;62.67;21.05;;;;;;;-0.37;92.65;96675.63;5053909;28;20495;-71
2020/12/05 03:37:42;;;;;;;55.20;21.98;;;;;;;-0.38;92.48;96671.34;5028436;28;20026;-71
2020/12/05 03:40:07;;;;;;;53.53;20.88;;;;;;;-0.38;92.30;96675.84;5019922;28;20445;-70
2020/12/05 03:42:33;;;;;;;53.45;21.92;;;;;;;-0.29;92.52;96670.22;5029810;28;20033;-70
2020/12/05 03:44:58;;;;;;;47.60;18.42;;;;;;;-0.16;92.37;96679.34;5027149;28;20082;-70
2020/12/05 03:47:23;;;;;;;46.55;18.00;;;;;;;-0.24;92.27;96691.75;5051819;28;20504;-70
2020/12/05 03:49:49;;;;;;;46.17;19.35;;;;;;;-0.19;92.00;96688.50;5055984;28;20029;-70
2020/12/05 03:52:15;;;;;;;41.67;17.42;;;;;;;-0.14;92.51;96685.31;5032304;28;20072;-70
2020/12/05 03:54:41;;;;;;;43.00;17.77;;;;;;;-0.05;91.75;96684.19;5034869;28;20487;-71
2020/12/05 03:57:06;;;;;;;40.00;16.33;;;;;;;-0.02;91.63;96697.09;5034930;28;20048;-69
2020/12/05 03:59:32;;;;;;;41.80;17.83;;;;;;;0.09;91.83;96715.19;5035341;28;20025;-69
2020/12/05 04:01:57;;;;;;;40.25;16.20;;;;;;;0.02;91.76;96719.63;5034058;28;20109;-70
2020/12/05 04:04:22;;;;;;;42.83;17.25;;;;;;;0.01;91.79;96725.94;5018551;28;20551;-70
2020/12/05 04:06:47;;;;;;;41.63;17.17;;;;;;;0.06;91.61;96726.22;5035121;28;20018;-70
2020/12/05 04:09:13;;;;;;;33.22;15.98;;;;;;;0.06;91.62;96722.75;5020601;28;20040;-70
2020/12/05 04:11:40;;;;;;;32.13;14.48;;;;;;;0.04;91.89;96714.94;5029381;28;20035;-69
2020/12/05 04:14:06;;;;;;;32.47;14.48;;;;;;;0.06;91.58;96728.88;5020634;28;20065;-69
2020/12/05 04:16:32;;;;;;;31.65;13.48;;;;;;;0.03;91.86;96745.19;5029358;28;20434;-69
2020/12/05 04:18:57;;;;;;;33.75;15.05;;;;;;;0.01;91.54;96759.69;5034743;28;20025;-69
2020/12/05 04:21:22;;;;;;;32.30;13.50;;;;;;;0.03;91.47;96765.63;5033221;28;20578;-69
2020/12/05 04:23:48;;;;;;;33.95;16.05;;;;;;;0.06;91.98;96774.06;5030860;28;20068;-69
2020/12/05 04:26:13;;;;;;;30.17;15.23;;;;;;;0.09;91.64;96773.69;5032498;28;20442;-69
2020/12/05 04:28:38;;;;;;;31.67;14.73;;;;;;;0.05;91.80;96774.25;5031738;28;20036;-69
2020/12/05 04:31:04;;;;;;;30.42;14.38;;;;;;;0.11;92.12;96800.91;5016468;28;20416;-69
2020/12/05 04:33:29;;;;;;;34.65;15.43;;;;;;;0.02;92.05;96791.38;5020194;28;20400;-69
2020/12/05 04:35:54;;;;;;;32.03;14.63;;;;;;;0.10;91.60;96806.41;5032576;28;20032;-69
2020/12/05 04:38:20;;;;;;;37.25;15.63;;;;;;;0.11;91.80;96800.09;5034663;28;20025;-69
2020/12/05 04:40:46;;;;;;;31.90;14.88;;;;;;;0.09;91.93;96802.94;5032333;28;20112;-69
2020/12/05 04:43:12;;;;;;;28.98;15.35;;;;;;;0.16;91.83;96808.34;5045467;28;20053;-69
2020/12/05 04:45:38;;;;;;;35.35;15.98;;;;;;;0.18;91.59;96833.75;5022816;28;20040;-69
2020/12/05 04:48:04;;;;;;;31.25;15.13;;;;;;;0.14;92.01;96844.94;5037611;28;20025;-69
2020/12/05 04:50:30;;;;;;;28.75;14.05;;;;;;;0.15;91.59;96818.13;5024091;28;20060;-69
2020/12/05 04:53:09;;;;;;;30.95;14.23;;;;;;;0.12;91.67;96781.28;5030898;28;20391;-69
2020/12/05 04:55:38;;;;;;;26.38;13.07;;;;;;;0.24;91.71;96786.09;5033853;28;20032;-69
2020/12/05 04:58:05;;;;;;;25.15;11.70;;;;;;;0.31;91.91;96802.97;5033962;28;20037;-69
2020/12/05 05:00:30;;;;;;;23.55;12.13;;;;;;;0.34;91.88;96808.75;5032870;28;20029;-73
2020/12/05 05:03:06;;;;;;;22.02;11.32;;;;;;;0.41;91.78;96803.50;5044479;28;20398;-74
2020/12/05 05:05:31;;;;;;;22.15;11.63;;;;;;;0.51;91.33;96825.28;5068567;28;20056;-72
2020/12/05 05:07:56;;;;;;;21.88;10.77;;;;;;;0.41;90.96;96814.94;5070674;28;20041;-74
2020/12/05 05:10:26;;;;;;;18.38;9.75;;;;;;;0.38;91.18;96827.81;5056380;28;20025;-75
2020/12/05 05:13:01;;;;;;;20.00;10.63;;;;;;;0.30;91.27;96836.72;5055425;28;20002;-73
2020/12/05 05:15:29;;;;;;;19.65;10.10;;;;;;;0.36;91.66;96861.75;5065354;28;20037;-75
2020/12/05 05:18:04;;;;;;;18.52;10.38;;;;;;;0.43;91.42;96881.28;5053154;28;20097;-75
2020/12/05 05:20:35;;;;;;;18.02;10.15;;;;;;;0.38;91.97;96899.63;5054819;28;20064;-76
2020/12/05 05:23:28;;;;;;;20.00;11.10;;;;;;;0.42;91.54;96898.25;5054561;28;20060;-76
2020/12/05 05:25:55;;;;;;;24.30;11.57;;;;;;;0.36;92.29;96893.66;5053432;28;20048;-76
2020/12/05 05:28:24;;;;;;;20.77;11.13;;;;;;;0.30;91.67;96894.41;5055234;28;20064;-72
2020/12/05 05:31:22;;;;;;;25.15;11.95;;;;;;;0.23;92.04;96889.00;5036309;28;20044;-73
2020/12/05 05:33:52;;;;;;;20.52;11.18;;;;;;;0.27;92.24;96894.78;5055472;28;20059;-72
2020/12/05 05:36:24;;;;;;;20.83;11.40;;;;;;;0.28;91.99;96891.13;5054941;28;20022;-72
2020/12/05 05:39:09;;;;;;;22.58;11.35;;;;;;;0.28;92.17;96904.41;5071642;28;20025;-73
2020/12/05 05:41:39;;;;;;;24.98;11.43;;;;;;;0.33;92.00;96915.31;5054203;28;20029;-73
2020/12/05 05:44:11;;;;;;;;;;;;;;;0.29;91.56;96917.53;5053443;28;20013;-71
2020/12/05 05:46:42;;;;;;;20.85;10.05;;;;;;;0.46;91.51;96933.28;5056329;28;19916;-74
2020/12/05 05:49:08;;;;;;;19.38;10.43;;;;;;;0.53;91.13;96915.56;5045062;28;20030;-74
2020/12/05 05:51:48;;;;;;;19.58;8.90;;;;;;;0.52;90.83;96900.59;5048621;28;20116;-73
2020/12/05 05:54:15;;;;;;;17.98;9.75;;;;;;;0.47;90.68;96905.66;5032499;28;20167;-75
2020/12/05 05:57:06;;;;;;;22.45;10.90;;;;;;;0.56;90.92;96947.94;5031396;28;20030;-74
2020/12/05 05:59:36;;;;;;;21.90;10.90;;;;;;;0.40;91.14;96945.50;5013791;28;20028;-75
2020/12/05 06:02:01;;;;;;;;;;;;;;;0.40;91.45;96932.19;5038938;28;20499;-72
2020/12/05 06:04:35;;;;;;;21.88;10.57;;;;;;;0.46;91.59;96927.97;5032775;28;19913;-75
2020/12/05 06:07:02;;;;;;;24.67;11.88;;;;;;;0.46;91.28;96933.28;5057865;28;20119;-76
2020/12/05 06:09:43;;;;;;;20.60;10.43;;;;;;;0.45;91.54;96948.44;5033338;28;20025;-72
2020/12/05 06:12:10;;;;;;;21.83;10.27;;;;;;;0.41;91.53;96961.25;5030560;28;20021;-72
2020/12/05 06:14:37;;;;;;;23.73;11.27;;;;;;;0.38;91.72;96964.28;5033151;28;20030;-74
2020/12/05 06:17:05;;;;;;;22.73;12.93;;;;;;;0.32;91.67;96964.22;5035382;28;20064;-75
2020/12/05 06:19:32;;;;;;;26.40;12.30;;;;;;;0.22;91.71;96936.06;5033582;28;20029;-76
2020/12/05 06:21:57;;;;;;;23.90;11.88;;;;;;;0.26;91.84;96936.50;5056171;28;20051;-72
2020/12/05 06:24:47;;;;;;;24.05;12.00;;;;;;;0.31;91.82;96950.06;5032026;28;20037;-72
2020/12/05 06:27:14;;;;;;;21.55;11.30;;;;;;;0.28;92.42;96941.66;5031889;28;20493;-72
2020/12/05 06:29:40;;;;;;;22.80;11.05;;;;;;;0.18;92.08;96937.44;5032526;28;20028;-72
2020/12/05 06:32:05;;;;;;;22.75;11.60;;;;;;;0.22;92.26;96952.00;5032774;28;20033;-73
2020/12/05 06:34:35;;;;;;;26.95;11.50;;;;;;;0.20;92.36;96977.94;5032338;28;20032;-72
2020/12/05 06:37:01;;;;;;;27.05;12.65;;;;;;;0.13;93.02;96971.75;5030591;28;20025;-72
2020/12/05 06:39:26;;;;;;;22.65;12.00;;;;;;;0.09;92.77;96981.06;5032543;28;20041;-74
2020/12/05 06:41:53;;;;;;;23.45;11.90;;;;;;;0.11;92.86;97024.25;5031994;28;20377;-75
2020/12/05 06:44:22;;;;;;;24.38;12.38;;;;;;;0.19;92.60;97044.63;5032627;28;20040;-72
2020/12/05 06:46:56;;;;;;;26.33;12.80;;;;;;;0.15;93.09;97049.47;5043970;28;20028;-72
2020/12/05 06:49:37;;;;;;;27.50;12.82;;;;;;;0.19;92.87;97053.44;5026712;28;20072;-72
2020/12/05 06:52:21;;;;;;;20.92;11.43;;;;;;;0.38;92.67;97053.91;5033121;28;20026;-73
2020/12/05 06:54:50;;;;;;;22.88;11.45;;;;;;;0.32;92.78;97047.50;5033436;28;20029;-73
2020/12/05 06:57:16;;;;;;;20.92;11.13;;;;;;;0.43;92.17;97041.72;5040323;28;20028;-72
2020/12/05 06:59:41;;;;;;;23.45;12.02;;;;;;;0.51;91.66;97040.81;5031720;28;20033;-73
2020/12/05 07:02:25;;;;;;;18.67;9.73;;;;;;;0.59;91.53;97038.03;5044077;28;20026;-73
2020/12/05 07:04:50;;;;;;;19.20;9.68;;;;;;;0.65;91.58;97032.00;5028503;28;20297;-73
2020/12/05 07:07:29;;;;;;;20.23;10.02;;;;;;;0.68;91.17;97040.59;5032048;28;20021;-73
2020/12/05 07:09:54;;;;;;;18.38;9.60;;;;;;;0.67;91.14;97061.09;5029238;28;20029;-73
2020/12/05 07:12:20;;;;;;;19.45;10.95;;;;;;;0.62;91.55;97068.78;5026067;28;20154;-73
2020/12/05 07:14:45;;;;;;;20.83;10.98;;;;;;;0.57;91.24;97082.63;5038339;28;20112;-73
2020/12/05 07:17:20;;;;;;;20.25;11.30;;;;;;;0.44;91.68;97077.94;5026378;28;20034;-73
2020/12/05 07:19:45;;;;;;;21.38;11.05;;;;;;;0.49;91.68;97077.41;5041842;28;20022;-72
2020/12/05 07:22:10;;;;;;;20.10;10.38;;;;;;;0.57;91.70;97055.19;5025717;28;20020;-73
2020/12/05 07:24:35;;;;;;;20.48;10.75;;;;;;;0.73;91.44;97062.19;5024927;28;20029;-73
2020/12/05 07:27:01;;;;;;;18.63;10.45;;;;;;;0.75;90.80;97055.66;5023924;28;20108;-72
2020/12/05 07:29:26;;;;;;;15.95;9.57;;;;;;;0.65;90.72;97018.69;5029288;28;20038;-71
2020/12/05 07:31:51;;;;;;;20.38;9.95;;;;;;;0.78;90.66;97041.16;5024932;28;20336;-72
2020/12/05 07:34:19;;;;;;;17.98;9.70;;;;;;;0.80;90.71;97047.94;5047989;28;20087;-72
2020/12/05 07:36:44;;;;;;;24.48;11.38;;;;;;;0.71;90.54;97041.09;5023586;28;20022;-72
2020/12/05 07:39:10;;;;;;;22.65;10.38;;;;;;;0.72;90.78;97056.03;5024404;28;20399;-72
2020/12/05 07:41:35;;;;;;;24.35;11.13;;;;;;;0.64;90.73;97046.31;5028538;28;20037;-72
2020/12/05 07:44:00;;;;;;;21.02;11.48;;;;;;;0.66;90.74;97043.47;5028585;28;20040;-72
2020/12/05 07:46:28;;;;;;;19.50;11.18;;;;;;;0.54;90.70;97029.78;5027063;28;20037;-72
2020/12/05 07:48:53;;;;;;;20.38;12.02;;;;;;;0.61;91.02;97052.00;5026164;28;20467;-72
2020/12/05 07:51:19;;;;;;;23.17;11.95;;;;;;;0.56;91.09;97059.72;5029874;28;20033;-72
2020/12/05 07:53:45;;;;;;;23.17;12.25;;;;;;;0.63;90.74;97059.81;5033803;28;20045;-72
2020/12/05 07:56:14;;;;;;;22.17;11.02;;;;;;;0.73;90.75;97086.13;5034976;28;20453;-72
2020/12/05 07:58:45;;;;;;;21.38;11.07;;;;;;;0.77;90.69;97090.91;5048693;28;20113;-72
2020/12/05 08:01:28;;;;;;;20.27;11.00;;;;;;;0.73;90.38;97078.16;5026923;28;20021;-74
2020/12/05 08:04:17;;;;;;;19.27;10.00;;;;;;;0.70;90.09;97078.53;5046519;28;20475;-75
2020/12/05 08:07:01;;;;;;;19.63;10.23;;;;;;;0.78;89.62;97095.22;5034109;28;20025;-73
2020/12/05 08:09:37;;;;;;;19.55;10.20;;;;;;;0.79;89.93;97082.75;5035953;28;20104;-73
2020/12/05 08:12:09;;;;;;;16.70;9.82;;;;;;;0.91;89.35;97105.22;5038045;28;20052;-73
2020/12/05 08:14:34;;;;;;;20.27;10.30;;;;;;;1.00;89.37;97104.13;5035886;28;20021;-73
2020/12/05 08:17:02;;;;;;;17.35;10.10;;;;;;;1.02;89.10;97117.25;5030589;28;20427;-73
2020/12/05 08:19:28;;;;;;;15.65;9.57;;;;;;;1.09;88.75;97112.84;5035430;28;20083;-74
2020/12/05 08:21:54;;;;;;;18.88;9.35;;;;;;;1.04;88.48;97109.91;5034489;28;20479;-74
2020/12/05 08:24:19;;;;;;;16.15;9.75;;;;;;;1.19;88.49;97120.56;5050581;28;20022;-73
2020/12/05 08:26:48;;;;;;;13.73;9.00;;;;;;;1.17;88.27;97125.22;5035432;28;20100;-75
2020/12/05 08:29:14;;;;;;;;;;;;;;;1.21;88.26;97127.34;5035889;28;20080;-74
2020/12/05 08:31:41;;;;;;;22.38;10.70;;;;;;;1.12;87.88;97101.00;5034641;28;19913;-73
2020/12/05 08:34:06;;;;;;;19.40;11.75;;;;;;;1.29;87.85;97089.13;5050281;28;20043;-74
2020/12/05 08:36:34;;;;;;;25.50;13.45;;;;;;;1.63;87.15;97115.13;5034571;28;20409;-73
2020/12/05 08:39:06;;;;;;;22.58;13.93;;;;;;;1.49;86.60;97139.97;5034983;28;20026;-73
2020/12/05 08:41:41;;;;;;;23.65;12.30;;;;;;;1.53;86.64;97149.25;5035099;28;20017;-74
2020/12/05 08:44:15;;;;;;;21.30;12.27;;;;;;;1.57;86.78;97147.03;5026352;28;20036;-73
2020/12/05 08:46:41;;;;;;;24.13;11.93;;;;;;;1.65;86.87;97142.44;5033887;28;20056;-72
2020/12/05 08:49:14;;;;;;;17.92;10.95;;;;;;;1.80;86.65;97146.88;5034602;28;20120;-73
2020/12/05 08:51:44;;;;;;;14.85;8.88;;;;;;;1.82;86.17;97144.88;5049606;28;20475;-73
2020/12/05 08:54:09;;;;;;;14.43;9.18;;;;;;;1.73;85.29;97141.50;5034258;28;20502;-74
2020/12/05 08:56:34;;;;;;;16.77;9.05;;;;;;;2.02;85.59;97150.38;5034202;28;20140;-73
2020/12/05 08:58:59;;;;;;;16.80;9.48;;;;;;;1.96;85.46;97160.81;5033769;28;20093;-73
2020/12/05 09:01:39;;;;;;;17.13;10.38;;;;;;;2.00;85.52;97163.94;5032450;28;20418;-70
2020/12/05 09:04:04;;;;;;;20.30;9.98;;;;;;;2.06;85.21;97173.00;5031983;28;20089;-70
2020/12/05 09:06:30;;;;;;;16.45;9.57;;;;;;;2.12;85.39;97185.59;5033049;28;20509;-69
2020/12/05 09:08:55;;;;;;;18.45;10.32;;;;;;;2.07;84.50;97185.31;5033980;28;20033;-69
2020/12/05 09:11:24;;;;;;;15.15;9.23;;;;;;;2.12;84.78;97186.44;5034671;28;20025;-69
2020/12/05 09:13:50;;;;;;;15.68;8.88;;;;;;;2.04;83.86;97191.03;5032909;28;20021;-76
2020/12/05 09:16:15;;;;;;;14.73;8.77;;;;;;;2.08;85.04;97201.16;5033347;28;20462;-74
2020/12/05 09:18:50;;;;;;;16.60;9.13;;;;;;;2.04;85.13;97180.38;5034309;28;20033;-71
2020/12/05 09:21:18;;;;;;;10.88;7.07;;;;;;;2.17;84.44;97197.38;5017901;28;20448;-75
2020/12/05 09:23:56;;;;;;;13.23;7.37;;;;;;;2.15;84.84;97182.56;5049693;28;20546;-76
2020/12/05 09:26:22;;;;;;;14.38;7.88;;;;;;;2.22;85.24;97183.44;5031711;28;20018;-76
2020/12/05 09:28:47;;;;;;;12.77;6.78;;;;;;;2.27;84.67;97185.53;5032851;28;20037;-76
2020/12/05 09:31:12;;;;;;;11.90;7.43;;;;;;;2.27;83.79;97185.53;5033808;28;20510;-76
2020/12/05 09:33:44;;;;;;;12.30;7.75;;;;;;;2.47;84.27;97194.56;5033328;28;20032;-70
2020/12/05 09:36:09;;;;;;;10.93;7.18;;;;;;;2.58;83.52;97194.03;5033093;28;20040;-73
2020/12/05 09:38:34;;;;;;;12.85;7.70;;;;;;;2.76;83.45;97187.41;5033682;28;20112;-74
2020/12/05 09:41:00;;;;;;;12.93;7.45;;;;;;;2.79;82.90;97182.50;5048996;28;20481;-74
2020/12/05 09:43:25;;;;;;;11.60;6.95;;;;;;;3.05;82.37;97178.38;5032957;28;20560;-75
2020/12/05 09:45:50;;;;;;;14.02;7.45;;;;;;;3.14;81.06;97168.34;5032699;28;20227;-72
2020/12/05 09:48:16;;;;;;;19.13;7.35;;;;;;;3.19;81.70;97185.44;5035062;28;20032;-74
2020/12/05 09:50:41;;;;;;;11.45;7.40;;;;;;;3.11;81.50;97166.88;5032373;28;20031;-75
2020/12/05 09:53:06;;;;;;;11.77;7.47;;;;;;;3.05;82.40;97183.72;5032045;28;20021;-75
2020/12/05 09:55:32;;;;;;;15.20;7.15;;;;;;;2.98;81.85;97185.50;5032667;28;20029;-76
2020/12/05 09:57:58;;;;;;;13.93;8.23;;;;;;;3.00;81.77;97183.47;5031960;28;20017;-77
2020/12/05 10:00:23;;;;;;;13.35;8.23;;;;;;;3.12;82.07;97192.59;5048418;28;20033;-76
2020/12/05 10:02:49;;;;;;;17.42;9.48;;;;;;;3.05;81.87;97200.56;5034639;28;20021;-76
2020/12/05 10:05:14;;;;;;;20.40;11.43;;;;;;;2.92;81.98;97207.66;5032888;28;20672;-76
2020/12/05 10:07:40;;;;;;;16.27;9.63;;;;;;;2.94;82.96;97197.63;5049288;28;20026;-76
2020/12/05 10:10:07;;;;;;;17.08;9.23;;;;;;;3.06;82.75;97207.53;5031353;28;20075;-77
2020/12/05 10:12:33;;;;;;;15.45;8.73;;;;;;;3.05;82.53;97179.19;5032164;28;20116;-78
2020/12/05 10:15:00;;;;;;;16.23;8.82;;;;;;;3.11;82.14;97188.25;5031683;28;20024;-73
2020/12/05 10:17:26;;;;;;;14.95;8.98;;;;;;;3.06;82.71;97177.31;5032433;28;20091;-75
2020/12/05 10:19:51;;;;;;;16.17;8.73;;;;;;;2.98;82.64;97169.47;5032765;28;20017;-77
2020/12/05 10:22:16;;;;;;;18.20;9.70;;;;;;;2.99;82.61;97192.50;5029262;28;20022;-75
2020/12/05 10:24:41;;;;;;;16.52;9.07;;;;;;;2.93;83.19;97191.41;5032836;28;20112;-75
2020/12/05 10:27:07;;;;;;;15.10;8.48;;;;;;;2.82;82.75;97183.94;5033511;28;20040;-75
2020/12/05 10:29:33;;;;;;;14.02;7.88;;;;;;;2.76;83.38;97171.38;5048673;28;20376;-75
2020/12/05 10:31:58;;;;;;;12.68;7.90;;;;;;;2.94;83.18;97181.59;5031778;28;20026;-78
2020/12/05 10:34:23;;;;;;;13.95;7.65;;;;;;;2.77;83.32;97176.50;5048045;28;20033;-75
2020/12/05 10:36:49;;;;;;;11.93;7.30;;;;;;;3.07;82.96;97192.34;5032786;28;20026;-76
2020/12/05 10:39:15;;;;;;;12.40;6.35;;;;;;;3.08;82.19;97204.69;5048644;28;20032;-76
2020/12/05 10:41:41;;;;;;;12.98;7.38;;;;;;;3.06;81.50;97218.22;5030904;28;20483;-74
2020/12/05 10:44:09;;;;;;;14.25;7.88;;;;;;;2.84;82.56;97224.66;5033483;28;20036;-75
2020/12/05 10:46:39;;;;;;;11.65;6.78;;;;;;;2.80;82.67;97221.56;5028871;28;20383;-74
2020/12/05 10:49:05;;;;;;;11.90;7.55;;;;;;;2.60;83.24;97245.41;5032503;28;20025;-75
2020/12/05 10:51:30;;;;;;;11.93;7.07;;;;;;;2.43;83.75;97233.31;5030920;28;20026;-75
2020/12/05 10:53:55;;;;;;;13.45;7.55;;;;;;;2.43;83.53;97235.97;5032323;28;20104;-75
2020/12/05 10:56:24;;;;;;;12.18;7.45;;;;;;;2.42;84.12;97243.16;5047694;28;20083;-75
2020/12/05 10:58:50;;;;;;;11.35;6.65;;;;;;;2.49;84.19;97248.59;5032365;28;20021;-74
2020/12/05 11:01:15;;;;;;;10.43;6.00;;;;;;;2.59;83.59;97234.91;5047913;28;20475;-76
2020/12/05 11:03:40;;;;;;;14.13;6.30;;;;;;;2.64;83.97;97248.50;5032349;28;20025;-75
2020/12/05 11:06:05;;;;;;;10.90;6.30;;;;;;;2.65;84.24;97247.50;5034489;28;20537;-75
2020/12/05 11:08:31;;;;;;;11.73;6.57;;;;;;;2.69;83.91;97245.25;5048015;28;20116;-75
2020/12/05 11:10:57;;;;;;;13.73;6.55;;;;;;;2.63;84.15;97228.16;5030586;28;20030;-75
2020/12/05 11:13:22;;;;;;;13.65;7.32;;;;;;;2.69;83.45;97230.06;5030790;28;20683;-76
2020/12/05 11:15:48;;;;;;;11.77;7.00;;;;;;;2.78;nan;97252.97;5030657;28;20034;-75
2020/12/05 11:18:13;;;;;;;10.77;6.60;;;;;;;2.55;83.45;97257.66;5031176;28;20128;-75
2020/12/05 11:20:38;;;;;;;11.85;6.78;;;;;;;2.40;85.06;97255.88;5032790;28;20052;-76
2020/12/05 11:23:03;;;;;;;12.32;6.80;;;;;;;2.48;84.67;97256.78;5030657;28;20104;-75
2020/12/05 11:25:29;;;;;;;12.10;7.25;;;;;;;2.41;84.18;97230.00;5028917;28;20494;-76
2020/12/05 11:27:54;;;;;;;16.23;6.78;;;;;;;2.45;83.56;97227.78;5024274;28;20100;-75